Time;durP1;ratioP1;P1;durP2;ratioP2;P2;SDS_P1;SDS_P2;PMS_P1;PMS_P2;Temp;Humidity;BMP_temperature;BMP_pressure;BME280_temperature;BME280_humidity;BME280_pressure;Samples;Min_cycle;Max_cycle;Signal;HPM_P1;HPM_P2
2021/03/24 00:00:22;;;;;;;20.20;10.63;;;;;;;3.30;55.38;94510.94;4970081;28;20031;-83
2021/03/24 00:02:48;;;;;;;19.77;9.65;;;;;;;3.28;54.94;94494.91;4979761;28;20140;-83
2021/03/24 00:08:05;;;;;;;18.13;10.15;;;;;;;3.28;55.57;94489.78;4958073;28;20150;-84
2021/03/24 00:10:34;;;;;;;17.17;9.20;;;;;;;3.33;54.92;94487.41;4980760;28;20410;-84
2021/03/24 00:13:05;;;;;;;17.08;9.02;;;;;;;3.28;55.41;94484.63;4947625;28;20077;-84
2021/03/24 00:15:36;;;;;;;14.65;8.15;;;;;;;3.27;55.49;94483.06;4960878;28;20267;-84
2021/03/24 00:18:05;;;;;;;17.23;10.93;;;;;;;3.26;55.25;94496.88;4963043;28;20130;-83
2021/03/24 00:20:45;;;;;;;17.60;9.73;;;;;;;3.27;55.08;94494.13;4956327;28;20066;-84
2021/03/24 00:23:13;;;;;;;11.55;9.15;;;;;;;3.22;55.06;94480.25;4962982;28;20074;-84
2021/03/24 00:26:17;;;;;;;12.20;7.88;;;;;;;3.23;55.04;94481.84;4957357;28;20089;-83
2021/03/24 00:29:12;;;;;;;15.27;7.00;;;;;;;3.27;55.11;94483.06;4954655;28;20062;-85
2021/03/24 00:31:40;;;;;;;10.30;6.47;;;;;;;3.41;54.42;94494.91;4950224;28;20062;-85
2021/03/24 00:34:06;;;;;;;8.30;6.22;;;;;;;3.51;54.74;94499.69;4971649;28;20035;-85
2021/03/24 00:36:31;;;;;;;8.77;6.07;;;;;;;3.53;54.34;94498.50;4963734;28;20665;-85
2021/03/24 00:38:57;;;;;;;14.68;6.22;;;;;;;3.55;54.89;94501.66;4971671;28;20035;-85
2021/03/24 00:41:22;;;;;;;12.10;6.25;;;;;;;3.57;55.16;94491.97;4965678;28;20411;-84
2021/03/24 00:43:51;;;;;;;8.57;6.47;;;;;;;3.58;54.29;94491.03;4957064;28;20035;-85
2021/03/24 00:46:16;;;;;;;13.45;7.53;;;;;;;3.52;55.82;94496.91;4965204;28;20059;-85
2021/03/24 00:48:49;;;;;;;9.63;7.45;;;;;;;3.51;58.45;94510.75;4974008;28;20046;-84
2021/03/24 00:51:14;;;;;;;10.68;6.40;;;;;;;3.32;59.85;94490.97;4958173;28;20036;-84
2021/03/24 00:53:40;;;;;;;9.73;7.32;;;;;;;3.18;63.82;94509.91;4982399;28;20074;-84
2021/03/24 00:56:06;;;;;;;17.27;8.48;;;;;;;3.01;64.56;94502.53;4971256;28;20119;-82
2021/03/24 00:58:31;;;;;;;11.30;7.88;;;;;;;2.87;65.43;94500.91;4943806;28;20042;-82
2021/03/24 01:01:00;;;;;;;15.90;8.75;;;;;;;2.73;65.26;94494.13;4983006;28;20038;-84
2021/03/24 01:03:26;;;;;;;12.15;9.25;;;;;;;2.73;64.84;94496.69;4944181;29;20106;-84
2021/03/24 01:05:52;;;;;;;14.63;7.53;;;;;;;2.79;64.53;94495.94;4961503;28;20059;-82
2021/03/24 01:08:24;;;;;;;11.80;7.07;;;;;;;2.82;64.80;94494.75;4984220;28;20518;-83
2021/03/24 01:10:50;;;;;;;13.88;9.20;;;;;;;2.90;64.17;94492.00;4963067;28;20066;-82
2021/03/24 01:13:25;;;;;;;16.95;9.15;;;;;;;2.84;63.91;94457.63;4993314;28;20062;-83
2021/03/24 01:15:51;;;;;;;16.08;9.48;;;;;;;3.00;63.31;94477.84;4967463;29;20023;-82
2021/03/24 01:18:24;;;;;;;14.73;9.10;;;;;;;2.97;62.96;94469.72;4994184;28;20095;-82
2021/03/24 01:20:50;;;;;;;14.75;8.45;;;;;;;3.01;62.07;94476.84;4994971;28;20039;-83
2021/03/24 01:23:21;;;;;;;14.43;9.18;;;;;;;2.97;62.49;94473.09;4984495;28;20022;-83
2021/03/24 01:25:47;;;;;;;22.15;9.10;;;;;;;2.93;61.94;94451.34;4981364;28;20019;-84
2021/03/24 01:28:27;;;;;;;14.35;9.18;;;;;;;3.00;62.63;94462.44;5181057;22;20529;-85
2021/03/24 01:30:56;;;;;;;15.15;9.65;;;;;;;3.06;61.59;94449.78;4989362;28;20053;-83
2021/03/24 01:33:22;;;;;;;14.30;8.75;;;;;;;3.11;61.98;94452.59;4982258;28;20045;-85
2021/03/24 01:35:48;;;;;;;24.30;9.25;;;;;;;3.16;61.26;94450.22;4982841;28;20513;-84
2021/03/24 01:38:23;;;;;;;11.10;8.23;;;;;;;3.14;60.73;94447.84;4964609;28;20038;-84
2021/03/24 01:40:50;;;;;;;13.98;8.73;;;;;;;3.18;60.45;94448.25;4964372;28;20125;-85
2021/03/24 01:43:30;;;;;;;18.52;8.55;;;;;;;3.22;60.13;94450.22;4985101;23;20039;-85
2021/03/24 01:46:20;;;;;;;11.70;8.43;;;;;;;3.25;60.58;94443.88;4982047;28;20030;-85
2021/03/24 01:48:45;;;;;;;17.08;9.52;;;;;;;3.32;60.32;94439.56;4974982;28;20035;-85
2021/03/24 01:51:11;;;;;;;11.35;9.32;;;;;;;3.28;60.32;94435.81;4969739;28;20111;-85
2021/03/24 01:53:37;;;;;;;11.07;8.23;;;;;;;3.32;61.05;94439.56;4943977;28;20129;-85
2021/03/24 01:56:03;;;;;;;14.50;9.25;;;;;;;3.35;60.45;94426.31;4954513;28;20027;-85
2021/03/24 01:58:29;;;;;;;13.90;9.18;;;;;;;3.23;60.57;94433.81;4944347;28;20066;-85
2021/03/24 02:00:54;;;;;;;18.80;8.95;;;;;;;3.23;61.02;94430.44;4972666;28;20039;-84
2021/03/24 02:03:24;;;;;;;18.38;8.85;;;;;;;3.16;60.67;94429.66;4954301;28;20042;-84
2021/03/24 02:05:50;;;;;;;15.88;10.95;;;;;;;3.08;61.62;94432.41;4960067;28;20567;-84
2021/03/24 02:08:18;;;;;;;16.08;9.95;;;;;;;3.10;61.62;94430.44;4950268;28;20059;-84
2021/03/24 02:10:50;;;;;;;16.45;10.65;;;;;;;3.07;61.65;94431.59;4960394;28;20026;-83
2021/03/24 02:13:44;;;;;;;14.70;9.10;;;;;;;3.00;62.09;94423.91;4984346;28;20046;-83
2021/03/24 02:16:21;;;;;;;14.13;10.05;;;;;;;2.99;61.68;94421.53;4965371;28;20055;-84
2021/03/24 02:18:47;;;;;;;14.07;10.27;;;;;;;3.04;61.41;94424.28;4960388;28;20058;-85
2021/03/24 02:21:25;;;;;;;12.82;10.23;;;;;;;3.10;61.24;94427.88;5038039;23;20173;-85
2021/03/24 02:24:17;;;;;;;15.93;10.40;;;;;;;3.12;61.20;94428.47;4941338;29;20042;-86
2021/03/24 02:26:49;;;;;;;16.83;10.57;;;;;;;3.12;61.08;94423.34;4929334;29;20031;-85
2021/03/24 02:29:18;;;;;;;17.70;11.35;;;;;;;3.16;61.12;94414.25;4909746;29;20287;-85
2021/03/24 02:31:44;;;;;;;15.13;10.65;;;;;;;3.17;61.07;94410.69;4906213;29;20063;-84
2021/03/24 02:34:12;;;;;;;17.73;10.65;;;;;;;3.17;61.65;94420.97;5014030;23;20037;-84
2021/03/24 02:36:38;;;;;;;12.68;10.98;;;;;;;3.21;61.24;94417.00;4982296;28;20035;-82
2021/03/24 02:39:08;;;;;;;16.30;10.40;;;;;;;3.17;61.66;94405.56;4980187;28;20034;-84
2021/03/24 02:41:33;;;;;;;14.00;10.82;;;;;;;3.09;61.85;94403.97;4984876;28;20030;-85
2021/03/24 02:43:59;;;;;;;15.50;11.07;;;;;;;3.00;61.91;94400.00;4941764;28;20045;-86
2021/03/24 02:46:24;;;;;;;14.32;10.75;;;;;;;2.90;62.60;94400.34;4971235;23;20112;-85
2021/03/24 02:48:49;;;;;;;12.45;10.27;;;;;;;2.90;62.24;94405.50;4990653;28;20035;-85
2021/03/24 02:51:23;;;;;;;14.50;10.95;;;;;;;2.83;62.41;94412.41;4972735;28;20030;-84
2021/03/24 02:53:49;;;;;;;17.17;11.30;;;;;;;2.77;61.83;94397.78;4975114;28;20506;-85
2021/03/24 02:56:14;;;;;;;19.10;10.90;;;;;;;2.76;62.19;94400.50;5002926;23;20039;-84
2021/03/24 02:58:40;;;;;;;18.98;12.02;;;;;;;2.80;61.74;94397.38;4977940;28;20043;-83
2021/03/24 03:01:08;;;;;;;14.13;10.52;;;;;;;2.79;61.87;94403.50;4982899;28;20470;-84
2021/03/24 03:03:42;;;;;;;16.95;10.82;;;;;;;2.72;62.22;94403.47;4967423;28;20037;-85
2021/03/24 03:06:09;;;;;;;15.90;11.68;;;;;;;2.85;62.27;94397.59;4960217;28;20039;-85
2021/03/24 03:08:48;;;;;;;21.80;13.32;;;;;;;2.79;62.85;94403.50;4987140;28;20023;-84
2021/03/24 03:11:24;;;;;;;20.15;11.25;;;;;;;2.78;62.79;94407.06;4989668;28;20127;-85
2021/03/24 03:13:58;;;;;;;14.70;10.60;;;;;;;2.73;63.46;94411.97;4975141;28;20089;-84
2021/03/24 03:16:44;;;;;;;12.98;10.25;;;;;;;2.73;63.69;94409.41;4978105;28;20049;-84
2021/03/24 03:19:18;;;;;;;17.95;11.23;;;;;;;2.68;64.58;94411.75;4966069;28;20150;-84
2021/03/24 03:21:49;;;;;;;14.50;11.68;;;;;;;2.65;65.35;94417.28;5012083;23;20135;-84
2021/03/24 03:24:14;;;;;;;15.07;11.07;;;;;;;2.50;68.23;94414.84;4973906;28;20048;-84
2021/03/24 03:26:43;;;;;;;19.92;12.85;;;;;;;2.34;69.33;94404.94;4973145;28;20035;-83
2021/03/24 03:29:16;;;;;;;16.80;12.88;;;;;;;2.29;69.92;94418.34;4973891;28;20069;-84
2021/03/24 03:31:43;;;;;;;19.45;12.50;;;;;;;2.29;70.57;94412.41;4959265;28;20049;-84
2021/03/24 03:34:10;;;;;;;22.40;13.00;;;;;;;2.21;69.55;94408.22;4974704;28;20026;-84
2021/03/24 03:36:37;;;;;;;18.88;12.15;;;;;;;2.21;69.77;94408.22;4956740;28;20030;-84
2021/03/24 03:39:03;;;;;;;15.02;11.32;;;;;;;2.26;70.38;94413.56;4997434;23;20068;-84
2021/03/24 03:41:29;;;;;;;17.27;12.95;;;;;;;2.27;69.09;94409.22;4986029;28;20041;-83
2021/03/24 03:43:54;;;;;;;17.52;12.40;;;;;;;2.33;69.23;94409.25;4964859;28;20034;-84
2021/03/24 03:46:22;;;;;;;15.15;12.65;;;;;;;2.36;67.62;94411.44;5004175;28;20041;-84
2021/03/24 03:48:47;;;;;;;17.27;11.70;;;;;;;2.37;66.82;94407.91;5021122;28;20048;-84
2021/03/24 03:51:29;;;;;;;19.30;12.50;;;;;;;2.37;66.25;94402.75;4986490;28;20101;-84
2021/03/24 03:53:58;;;;;;;16.98;12.10;;;;;;;2.33;65.26;94399.00;4971850;28;20034;-84
2021/03/24 03:56:32;;;;;;;17.83;12.05;;;;;;;2.32;65.63;94417.94;4987831;28;20038;-84
2021/03/24 03:59:14;;;;;;;15.82;12.32;;;;;;;2.31;65.35;94415.56;4984265;28;20037;-83
2021/03/24 04:01:43;;;;;;;23.73;12.15;;;;;;;2.32;65.07;94417.16;5002808;28;20431;-84
2021/03/24 04:04:25;;;;;;;20.13;12.63;;;;;;;2.29;64.60;94420.91;4987008;28;20076;-84
2021/03/24 04:07:18;;;;;;;17.73;11.63;;;;;;;2.32;64.93;94428.22;5001681;28;20045;-84
2021/03/24 04:09:44;;;;;;;26.30;12.05;;;;;;;2.40;64.27;94428.03;4992430;23;20049;-84
2021/03/24 04:12:12;;;;;;;23.52;13.80;;;;;;;2.43;64.38;94429.41;5000996;28;20034;-83
2021/03/24 04:14:38;;;;;;;23.83;15.52;;;;;;;2.40;64.49;94435.72;4968678;28;20117;-82
2021/03/24 04:17:04;;;;;;;30.30;14.98;;;;;;;2.44;64.52;94441.31;4942966;28;20471;-82
2021/03/24 04:19:31;;;;;;;21.92;13.90;;;;;;;2.47;64.13;94440.13;5002035;28;20062;-82
2021/03/24 04:22:01;;;;;;;20.13;13.80;;;;;;;2.49;63.95;94438.16;4974605;28;20040;-82
2021/03/24 04:24:32;;;;;;;19.33;12.50;;;;;;;2.43;64.88;94434.56;4983228;28;20549;-83
2021/03/24 04:26:59;;;;;;;17.77;13.57;;;;;;;2.48;64.43;94436.56;4967762;28;20030;-83
2021/03/24 04:29:40;;;;;;;21.95;13.85;;;;;;;2.50;65.60;94439.72;4953660;28;20085;-83
2021/03/24 04:32:06;;;;;;;24.25;14.13;;;;;;;2.53;64.64;94444.47;4950671;28;20042;-83
2021/03/24 04:34:32;;;;;;;19.67;13.68;;;;;;;2.57;64.66;94454.16;4959885;28;20088;-82
2021/03/24 04:37:16;;;;;;;26.02;14.80;;;;;;;2.57;65.00;94445.69;4936122;28;20030;-82
2021/03/24 04:39:57;;;;;;;24.10;14.50;;;;;;;2.55;65.50;94455.34;4986740;23;20028;-83
2021/03/24 04:42:52;;;;;;;30.42;14.65;;;;;;;2.66;65.08;94457.38;4993320;28;20121;-83
2021/03/24 04:45:28;;;;;;;32.63;16.90;;;;;;;2.66;64.97;94449.69;4978118;28;20046;-84
2021/03/24 04:47:54;;;;;;;41.13;18.15;;;;;;;2.68;65.12;94457.97;4983446;28;20037;-83
2021/03/24 04:50:29;;;;;;;29.02;15.98;;;;;;;2.69;65.12;94473.19;4983939;28;20097;-84
2021/03/24 04:52:54;;;;;;;20.73;13.15;;;;;;;2.75;64.85;94463.91;4977208;28;20038;-84
2021/03/24 04:55:22;;;;;;;19.60;13.20;;;;;;;2.68;64.96;94458.75;4969078;28;20034;-85
2021/03/24 04:57:48;;;;;;;31.33;13.18;;;;;;;2.71;65.41;94467.84;4997260;28;20040;-85
2021/03/24 05:00:22;;;;;;;18.73;12.80;;;;;;;2.70;65.20;94477.31;4976489;28;20046;-84
2021/03/24 05:03:06;;;;;;;16.42;12.20;;;;;;;2.58;65.93;94471.16;5011773;28;20039;-85
2021/03/24 05:05:31;;;;;;;19.67;12.27;;;;;;;2.48;66.17;94472.50;4982629;28;20113;-85
2021/03/24 05:08:12;;;;;;;23.10;13.02;;;;;;;2.45;66.22;94457.50;4976877;28;20041;-85
2021/03/24 05:10:38;;;;;;;20.42;14.65;;;;;;;2.45;66.73;94473.69;4995911;28;20080;-84
2021/03/24 05:13:12;;;;;;;25.92;16.55;;;;;;;2.41;66.90;94473.22;5011485;28;20030;-85
2021/03/24 05:15:40;;;;;;;24.95;14.98;;;;;;;2.43;66.66;94470.47;5010607;28;20092;-84
2021/03/24 05:18:07;;;;;;;33.55;17.50;;;;;;;2.50;66.08;94478.22;4971386;28;20108;-83
2021/03/24 05:20:45;;;;;;;18.30;12.32;;;;;;;2.59;66.80;94465.03;4971657;28;20061;-85
2021/03/24 05:23:14;;;;;;;27.63;15.88;;;;;;;2.67;66.60;94485.41;4977916;28;20070;-86
2021/03/24 05:25:40;;;;;;;14.05;11.32;;;;;;;2.70;67.11;94489.38;4985064;28;20041;-84
2021/03/24 05:28:16;;;;;;;27.95;13.73;;;;;;;2.69;67.78;94480.88;4997139;28;20058;-84
2021/03/24 05:30:50;;;;;;;19.55;12.65;;;;;;;2.74;67.99;94492.34;4989677;28;20037;-85
2021/03/24 05:33:19;;;;;;;24.42;15.00;;;;;;;2.81;68.67;94488.84;4981271;28;20046;-84
2021/03/24 05:35:57;;;;;;;16.80;11.45;;;;;;;2.84;67.93;94496.16;4967906;28;20085;-84
2021/03/24 05:38:40;;;;;;;29.13;12.68;;;;;;;2.72;67.89;94484.84;5005878;28;20046;-84
2021/03/24 05:41:38;;;;;;;19.30;10.50;;;;;;;2.57;69.23;94492.66;4970869;28;20063;-85
2021/03/24 05:44:38;;;;;;;16.13;10.63;;;;;;;2.55;68.97;94498.97;4981791;28;20156;-85
2021/03/24 05:47:28;;;;;;;20.40;10.60;;;;;;;2.64;67.06;94514.03;5009864;28;20056;-83
2021/03/24 05:50:31;;;;;;;11.27;7.93;;;;;;;2.45;67.19;94506.25;4965562;28;20572;-83
2021/03/24 05:53:00;;;;;;;12.45;8.43;;;;;;;2.42;67.28;94525.34;4992140;28;20538;-85
2021/03/24 05:55:42;;;;;;;14.50;8.45;;;;;;;2.50;66.42;94527.00;5006093;28;20039;-82
2021/03/24 05:58:37;;;;;;;13.23;8.65;;;;;;;2.47;66.17;94537.63;5119044;23;20019;-83
2021/03/24 06:01:28;;;;;;;12.00;8.00;;;;;;;2.53;65.08;94527.41;5005454;28;20045;-84
2021/03/24 06:04:21;;;;;;;9.65;7.90;;;;;;;2.40;67.11;94535.81;4966822;28;20100;-85
2021/03/24 06:06:59;;;;;;;12.77;9.13;;;;;;;2.46;66.44;94536.06;4993468;28;20085;-83
2021/03/24 06:10:01;;;;;;;15.02;7.55;;;;;;;2.36;67.57;94567.16;4988001;28;20031;-84
2021/03/24 06:12:54;;;;;;;11.98;7.80;;;;;;;2.63;66.57;94563.00;4987660;28;20046;-86
2021/03/24 06:15:29;;;;;;;9.88;7.88;;;;;;;3.00;64.25;94570.31;4995423;28;20065;-84
2021/03/24 06:18:00;;;;;;;9.80;7.00;;;;;;;3.18;63.46;94581.84;4985982;28;20041;-84
2021/03/24 06:20:50;;;;;;;11.53;8.00;;;;;;;3.29;64.26;94583.88;4969964;28;20052;-84
2021/03/24 06:23:34;;;;;;;11.75;7.53;;;;;;;3.29;63.96;94584.66;4964892;28;20092;-83
2021/03/24 06:26:05;;;;;;;5.97;5.35;;;;;;;3.50;61.26;94596.59;4990318;28;20494;-82
2021/03/24 06:28:53;;;;;;;4.38;3.45;;;;;;;3.50;58.96;94604.28;4992900;28;20070;-83
2021/03/24 06:31:56;;;;;;;4.03;3.72;;;;;;;2.99;58.02;94617.53;4988357;28;20041;-83
2021/03/24 06:34:37;;;;;;;3.25;2.95;;;;;;;2.99;58.91;94627.00;4998250;28;20066;-83
2021/03/24 06:37:25;;;;;;;3.50;3.20;;;;;;;3.08;58.79;94627.63;4962238;28;20038;-83
2021/03/24 06:40:06;;;;;;;2.22;2.13;;;;;;;3.07;58.59;94629.41;4988800;28;20034;-83
2021/03/24 06:42:48;;;;;;;2.00;1.90;;;;;;;2.89;58.93;94649.66;5002234;28;20038;-83
2021/03/24 06:45:50;;;;;;;2.35;2.15;;;;;;;2.67;60.40;94631.75;4987832;28;20138;-84
2021/03/24 06:48:24;;;;;;;1.83;1.73;;;;;;;2.92;58.25;94632.09;5001514;28;20121;-84
2021/03/24 06:51:23;;;;;;;3.70;2.70;;;;;;;2.27;60.07;94658.84;5001064;28;20031;-83
2021/03/24 06:54:10;;;;;;;3.60;2.75;;;;;;;1.80;62.13;94659.41;5008166;28;20089;-80
2021/03/24 06:57:21;;;;;;;3.50;3.03;;;;;;;1.28;65.31;94669.81;5000098;28;20045;-85
2021/03/24 07:00:20;;;;;;;2.80;2.60;;;;;;;0.93;58.50;94692.59;4968275;28;20047;-81
2021/03/24 07:02:51;;;;;;;2.88;2.60;;;;;;;0.27;57.03;94694.13;4966139;28;20127;-81
2021/03/24 07:05:38;;;;;;;2.38;2.17;;;;;;;0.61;55.72;94698.81;4967681;28;20049;-83
2021/03/24 07:08:10;;;;;;;3.95;2.60;;;;;;;0.95;54.72;94690.66;4997474;28;20431;-83
2021/03/24 07:11:05;;;;;;;2.40;2.28;;;;;;;0.99;53.84;94697.03;5011769;28;20042;-83
2021/03/24 07:13:49;;;;;;;2.28;2.17;;;;;;;0.88;53.97;94708.50;5003984;28;20124;-84
2021/03/24 07:16:24;;;;;;;2.55;2.45;;;;;;;1.27;54.00;94701.53;4995991;28;20034;-84
2021/03/24 07:19:13;;;;;;;3.03;2.83;;;;;;;1.96;52.14;94714.81;4981440;28;20033;-82
2021/03/24 07:21:59;;;;;;;2.17;2.08;;;;;;;1.99;49.87;94719.56;4994533;28;20046;-83
2021/03/24 07:24:45;;;;;;;2.13;2.03;;;;;;;2.16;50.89;94720.94;4958892;28;20046;-83
2021/03/24 07:27:22;;;;;;;2.40;2.30;;;;;;;1.84;51.30;94724.72;4992597;28;20043;-83
2021/03/24 07:30:18;;;;;;;2.55;2.38;;;;;;;1.78;51.26;94736.47;4976573;28;20410;-83
2021/03/24 07:33:05;;;;;;;3.95;2.10;;;;;;;1.82;51.39;94739.50;4979134;28;20034;-84
2021/03/24 07:36:03;;;;;;;1.65;1.58;;;;;;;2.20;50.41;94750.38;4979690;28;20038;-83
2021/03/24 07:38:59;;;;;;;3.00;2.30;;;;;;;2.54;49.36;94751.47;4972386;28;20466;-82
2021/03/24 07:41:35;;;;;;;1.95;1.85;;;;;;;2.58;48.17;94745.00;4956758;28;20033;-83
2021/03/24 07:44:32;;;;;;;2.15;1.92;;;;;;;2.35;47.92;94761.38;4993689;28;20049;-82
2021/03/24 07:47:35;;;;;;;2.30;2.20;;;;;;;2.00;49.90;94764.75;4996334;28;20033;-84
2021/03/24 07:50:30;;;;;;;1.95;1.85;;;;;;;1.70;49.46;94762.22;4986708;28;20494;-83
2021/03/24 07:53:00;;;;;;;1.90;1.80;;;;;;;1.97;48.92;94772.81;4955490;28;20073;-83
2021/03/24 07:55:44;;;;;;;2.35;2.15;;;;;;;2.20;48.56;94768.31;4957010;28;20038;-84
2021/03/24 07:58:31;;;;;;;2.30;2.20;;;;;;;2.22;48.49;94765.56;4989992;28;20031;-83
2021/03/24 08:01:15;;;;;;;2.38;2.28;;;;;;;2.05;49.99;94776.03;4995116;28;20136;-83
2021/03/24 08:04:12;;;;;;;2.53;2.35;;;;;;;2.24;49.88;94781.56;4983075;28;20031;-83
2021/03/24 08:07:00;;;;;;;7.78;2.70;;;;;;;2.37;48.87;94781.72;4994167;28;20042;-82
2021/03/24 08:09:27;;;;;;;2.90;2.70;;;;;;;2.49;49.19;94784.63;4981556;28;20496;-83
2021/03/24 08:12:24;;;;;;;3.10;2.80;;;;;;;2.35;49.49;94794.72;4980818;28;20054;-85
2021/03/24 08:15:08;;;;;;;3.15;2.85;;;;;;;2.55;49.20;94789.00;4975955;28;20426;-82
2021/03/24 08:17:50;;;;;;;2.67;2.47;;;;;;;2.50;49.74;94796.47;4989849;28;20030;-85
2021/03/24 08:20:43;;;;;;;3.17;2.88;;;;;;;2.39;51.48;94797.72;4988134;28;20034;-82
2021/03/24 08:23:47;;;;;;;3.10;2.90;;;;;;;2.58;51.20;94806.59;4971077;29;20067;-83
2021/03/24 08:26:23;;;;;;;3.10;2.90;;;;;;;2.70;50.56;94805.16;4971126;29;20031;-84
2021/03/24 08:29:11;;;;;;;7.20;3.75;;;;;;;2.73;52.88;94809.91;4956424;29;20030;-83
2021/03/24 08:31:58;;;;;;;5.93;4.00;;;;;;;2.84;53.25;94822.28;4952273;29;20102;-83
2021/03/24 08:34:45;;;;;;;5.20;3.90;;;;;;;2.97;53.29;94812.13;4954618;28;20648;-83
2021/03/24 08:37:15;;;;;;;6.65;3.88;;;;;;;3.16;52.72;94825.31;4956054;29;20046;-85
2021/03/24 08:39:56;;;;;;;4.35;3.95;;;;;;;3.44;53.49;94818.41;4923967;29;20510;-85
2021/03/24 08:45:58;;;;;;;3.38;2.92;;;;;;;4.33;50.11;94821.06;4939801;28;20031;-85
2021/03/24 08:48:32;;;;;;;6.25;4.00;;;;;;;4.63;49.41;94818.97;4939297;29;20132;-85
2021/03/24 08:51:03;;;;;;;5.57;3.00;;;;;;;4.90;47.92;94824.19;4941442;29;20102;-87
2021/03/24 08:53:53;;;;;;;4.25;2.55;;;;;;;5.25;46.98;94817.06;4944472;28;20427;-86
2021/03/24 08:56:50;;;;;;;2.55;2.35;;;;;;;5.52;46.25;94807.53;5004032;28;20474;-86
2021/03/24 08:59:53;;;;;;;3.20;2.90;;;;;;;5.68;45.43;94818.22;4970687;28;20030;-87
2021/03/24 09:02:37;;;;;;;10.13;8.02;;;;;;;6.03;45.07;94815.41;4960597;28;20050;-86
2021/03/24 09:05:10;;;;;;;3.45;3.13;;;;;;;6.10;44.05;94815.38;4987178;28;20041;-85
2021/03/24 09:07:54;;;;;;;;;;;;;;;6.45;42.00;94813.25;4953620;28;20493;-85
2021/03/24 09:11:11;;;;;;;4.20;3.47;;;;;;;6.38;42.55;94818.47;4989053;28;20023;-86
2021/03/24 09:14:04;;;;;;;5.03;3.75;;;;;;;6.73;41.52;94815.50;4953143;28;20066;-86
2021/03/24 09:16:48;;;;;;;;;;;;;;;6.57;41.40;94816.78;4971523;28;20128;-85
2021/03/24 09:19:29;;;;;;;5.85;3.40;;;;;;;6.57;40.96;94817.56;4986771;28;19918;-84
2021/03/24 09:22:31;;;;;;;3.90;3.22;;;;;;;6.72;39.09;94816.50;4984097;28;20189;-85
2021/03/24 09:25:11;;;;;;;2.90;2.60;;;;;;;6.51;38.53;94828.75;4996077;28;20041;-83
2021/03/24 09:27:51;;;;;;;2.30;2.10;;;;;;;6.20;37.61;94829.44;4971882;28;20031;-87
2021/03/24 09:30:36;;;;;;;3.53;2.75;;;;;;;5.68;38.88;94832.91;4981149;28;20034;-83
2021/03/24 09:33:19;;;;;;;3.88;3.10;;;;;;;5.05;40.70;94832.53;4998130;28;20045;-86
2021/03/24 09:36:22;;;;;;;3.05;2.40;;;;;;;5.15;40.47;94832.91;4963769;28;20046;-87
2021/03/24 09:38:47;;;;;;;;;;;;;;;5.24;39.45;94826.59;5006763;28;20038;-84
2021/03/24 09:41:19;;;;;;;5.80;2.97;;;;;;;5.70;39.61;94836.09;5015669;28;19967;-85
2021/03/24 09:43:51;;;;;;;3.33;2.80;;;;;;;5.46;38.68;94844.44;4995612;28;20125;-85
2021/03/24 09:46:29;;;;;;;3.67;2.92;;;;;;;4.77;39.00;94846.34;4940846;28;20462;-86
2021/03/24 09:48:57;;;;;;;4.93;2.63;;;;;;;4.09;40.07;94840.38;4949335;28;20046;-86
2021/03/24 09:51:48;;;;;;;9.75;3.33;;;;;;;3.67;41.32;94854.16;4954867;28;20038;-83
2021/03/24 09:54:27;;;;;;;3.65;2.88;;;;;;;2.94;43.16;94858.72;4971458;28;20039;-86
2021/03/24 09:57:16;;;;;;;3.78;2.65;;;;;;;2.20;44.42;94870.94;4953841;28;20031;-85
2021/03/24 09:59:45;;;;;;;3.40;3.08;;;;;;;2.04;46.30;94863.44;4954141;28;20026;-86
2021/03/24 10:02:35;;;;;;;6.20;2.95;;;;;;;2.23;46.08;94867.22;4935438;28;20301;-86
2021/03/24 10:05:01;;;;;;;3.13;2.92;;;;;;;2.23;46.06;94862.88;4971855;28;20042;-84
2021/03/24 10:07:29;;;;;;;5.45;2.83;;;;;;;2.48;45.25;94881.34;4969202;28;20065;-87
2021/03/24 10:09:59;;;;;;;7.90;2.90;;;;;;;2.43;45.89;94886.19;4960341;28;20038;-87
2021/03/24 10:12:30;;;;;;;5.35;2.90;;;;;;;2.38;47.16;94879.06;5013593;28;20105;-85
2021/03/24 10:15:01;;;;;;;5.05;2.97;;;;;;;2.56;46.67;94885.56;5007329;28;20046;-84
2021/03/24 10:17:36;;;;;;;3.23;2.93;;;;;;;2.30;48.14;94881.72;5013624;28;20066;-80
2021/03/24 10:20:08;;;;;;;2.78;2.45;;;;;;;1.71;49.13;94896.31;4987102;28;20061;-79
2021/03/24 10:22:44;;;;;;;2.63;2.45;;;;;;;1.39;51.83;94882.03;4974549;28;20018;-81
2021/03/24 10:25:21;;;;;;;2.80;2.60;;;;;;;1.71;50.74;94886.84;4988709;28;20011;-83
2021/03/24 10:28:07;;;;;;;20.17;8.50;;;;;;;1.82;49.55;94888.19;4986099;28;20034;-87
2021/03/24 10:30:43;;;;;;;2.88;2.63;;;;;;;1.94;47.02;94885.97;4991474;28;20050;-86
2021/03/24 10:33:46;;;;;;;47.92;20.42;;;;;;;2.17;45.80;94886.69;4974424;28;20030;-86
2021/03/24 10:36:53;;;;;;;5.03;4.22;;;;;;;1.65;44.65;94892.69;4955655;28;20053;-85
2021/03/24 10:39:35;;;;;;;28.98;11.43;;;;;;;1.80;44.81;94892.69;4886141;29;20123;-86
2021/03/24 10:42:05;;;;;;;6.43;4.90;;;;;;;1.90;42.77;94890.66;4965185;28;20042;-86
2021/03/24 10:44:48;;;;;;;4.93;4.43;;;;;;;2.18;42.09;94880.59;4974624;28;20037;-86
2021/03/24 10:47:15;;;;;;;7.85;5.57;;;;;;;1.84;40.38;94888.00;4955449;28;20038;-86
2021/03/24 10:49:52;;;;;;;6.43;4.93;;;;;;;1.56;40.43;94878.34;4990056;28;20034;-86
2021/03/24 10:52:21;;;;;;;5.30;4.60;;;;;;;1.56;40.30;94880.91;4969139;28;20154;-86
2021/03/24 10:54:59;;;;;;;4.63;4.07;;;;;;;1.99;40.75;94878.56;4954622;28;20065;-85
2021/03/24 10:57:52;;;;;;;9.02;5.45;;;;;;;2.19;40.45;94876.25;4966605;28;20061;-85
2021/03/24 11:00:38;;;;;;;4.28;3.53;;;;;;;2.41;41.21;94873.56;4983472;28;20043;-86
2021/03/24 11:03:11;;;;;;;8.98;4.13;;;;;;;3.04;39.98;94873.03;4960643;28;20026;-86
2021/03/24 11:05:57;;;;;;;3.25;3.00;;;;;;;3.56;39.05;94883.75;4971542;28;20075;-83
2021/03/24 11:08:37;;;;;;;3.63;2.88;;;;;;;3.61;36.59;94878.84;4978213;28;20034;-85
2021/03/24 11:11:16;;;;;;;3.08;2.78;;;;;;;3.44;36.59;94859.53;4949459;28;20105;-85
2021/03/24 11:14:01;;;;;;;5.30;1.80;;;;;;;3.46;36.32;94877.34;4982625;23;20046;-85
2021/03/24 11:16:42;;;;;;;8.40;2.40;;;;;;;2.88;36.67;94874.84;4970757;28;20070;-85
2021/03/24 11:19:17;;;;;;;2.35;2.15;;;;;;;2.66;36.04;94878.38;4959835;28;20047;-84
2021/03/24 11:22:05;;;;;;;3.63;2.05;;;;;;;2.84;36.79;94881.34;4967724;28;20027;-85
2021/03/24 11:24:58;;;;;;;2.35;2.13;;;;;;;2.44;36.27;94879.28;4971739;28;20038;-86
2021/03/24 11:27:51;;;;;;;4.60;2.45;;;;;;;2.26;36.42;94871.97;4985623;28;20031;-86
2021/03/24 11:30:28;;;;;;;2.60;2.40;;;;;;;2.47;36.22;94871.25;4967955;28;20049;-84
2021/03/24 11:35:40;;;;;;;4.25;2.50;;;;;;;2.56;35.94;94863.25;5020676;28;20053;-84
2021/03/24 11:38:21;;;;;;;2.92;2.67;;;;;;;3.06;36.26;94873.63;4946555;28;20034;-85
2021/03/24 11:40:53;;;;;;;2.75;2.10;;;;;;;3.49;34.93;94867.47;4989512;28;20065;-82
2021/03/24 11:43:32;;;;;;;2.30;2.03;;;;;;;3.91;34.83;94847.78;5007198;28;20073;-81
2021/03/24 11:46:13;;;;;;;4.72;2.42;;;;;;;4.15;33.30;94842.16;4999019;28;20076;-80
2021/03/24 11:48:57;;;;;;;5.65;2.90;;;;;;;4.00;34.83;94849.22;4978726;28;20034;-80
2021/03/24 11:51:47;;;;;;;2.72;2.53;;;;;;;3.39;34.15;94856.72;5015805;28;20038;-80
2021/03/24 11:54:35;;;;;;;9.02;2.42;;;;;;;3.52;34.91;94849.13;5005850;28;20030;-81
2021/03/24 11:57:42;;;;;;;6.10;2.55;;;;;;;3.42;34.84;94853.81;5008935;28;20113;-81
2021/03/24 12:00:33;;;;;;;2.70;2.33;;;;;;;3.16;35.16;94851.81;4988194;28;20049;-81
2021/03/24 12:03:01;;;;;;;2.50;2.30;;;;;;;3.52;34.91;94851.69;5015381;28;20565;-79
2021/03/24 12:05:44;;;;;;;3.22;2.35;;;;;;;3.96;34.15;94842.88;5015752;28;20037;-79
2021/03/24 12:08:37;;;;;;;10.30;2.78;;;;;;;4.22;33.07;94837.81;5006614;28;20041;-80
2021/03/24 12:11:12;;;;;;;4.97;3.60;;;;;;;4.25;35.33;94833.31;4995284;28;20041;-79
2021/03/24 12:13:37;;;;;;;4.50;3.33;;;;;;;4.38;34.92;94831.56;5008224;28;20053;-81
2021/03/24 12:16:08;;;;;;;8.88;2.95;;;;;;;4.24;34.74;94834.28;5004798;28;20137;-81
2021/03/24 12:18:49;;;;;;;4.53;3.78;;;;;;;4.30;35.79;94826.59;4980836;28;20073;-83
2021/03/24 12:21:26;;;;;;;4.32;3.60;;;;;;;4.42;34.26;94832.00;4988524;28;20033;-82
2021/03/24 12:23:58;;;;;;;7.53;3.38;;;;;;;4.45;34.32;94836.75;4989020;28;20038;-81
2021/03/24 12:26:42;;;;;;;7.05;3.65;;;;;;;4.44;35.42;94824.88;4992778;28;20045;-80
2021/03/24 12:29:13;;;;;;;7.60;3.00;;;;;;;4.47;34.43;94835.56;4980851;28;20034;-86
2021/03/24 12:31:58;;;;;;;3.85;3.17;;;;;;;4.26;34.77;94838.25;4986060;28;20026;-82
2021/03/24 12:34:24;;;;;;;7.45;3.10;;;;;;;4.14;34.98;94830.28;5008723;28;20046;-83